sensor_id;sensor_type;location;lat;lon;timestamp;pressure;altitude;pressure_sealevel;temperature;humidity
8890;BME280;4481;43.406;24.454;2023-02-28T00:00:06;78282.16;;;-144.09;100.00
8890;BME280;4481;43.406;24.454;2023-02-28T00:02:35;78275.91;;;-144.09;100.00
8890;BME280;4481;43.406;24.454;2023-02-28T00:05:02;78298.88;;;-144.09;100.00
8890;BME280;4481;43.406;24.454;2023-02-28T00:07:29;78284.25;;;-144.09;100.00
8890;BME280;4481;43.406;24.454;2023-02-28T00:09:55;78288.44;;;-144.09;100.00
8890;BME280;4481;43.406;24.454;2023-02-28T00:12:22;78305.16;;;-144.09;100.00
8890;BME280;4481;43.406;24.454;2023-02-28T00:14:48;78307.25;;;-144.09;100.00
8890;BME280;4481;43.406;24.454;2023-02-28T00:17:14;78294.72;;;-144.09;100.00
8890;BME280;4481;43.406;24.454;2023-02-28T00:19:41;78300.97;;;-144.09;100.00
8890;BME280;4481;43.406;24.454;2023-02-28T00:22:07;78294.72;;;-144.09;100.00
8890;BME280;4481;43.406;24.454;2023-02-28T00:24:34;78288.44;;;-144.09;100.00
8890;BME280;4481;43.406;24.454;2023-02-28T00:27:00;78284.25;;;-144.09;100.00
8890;BME280;4481;43.406;24.454;2023-02-28T00:29:27;78286.34;;;-144.09;100.00
8890;BME280;4481;43.406;24.454;2023-02-28T00:31:53;78288.44;;;-144.09;100.00
8890;BME280;4481;43.406;24.454;2023-02-28T00:34:19;78292.63;;;-144.09;100.00
8890;BME280;4481;43.406;24.454;2023-02-28T00:36:45;78286.34;;;-144.09;100.00
8890;BME280;4481;43.406;24.454;2023-02-28T00:39:14;78288.44;;;-144.09;100.00
8890;BME280;4481;43.406;24.454;2023-02-28T00:41:41;78298.88;;;-144.09;100.00
8890;BME280;4481;43.406;24.454;2023-02-28T00:44:07;78292.63;;;-144.09;100.00
8890;BME280;4481;43.406;24.454;2023-02-28T00:46:34;78300.97;;;-144.09;100.00
8890;BME280;4481;43.406;24.454;2023-02-28T00:49:00;78303.06;;;-144.09;100.00
8890;BME280;4481;43.406;24.454;2023-02-28T00:51:26;78315.63;;;-144.09;100.00
8890;BME280;4481;43.406;24.454;2023-02-28T00:53:53;78305.16;;;-144.09;100.00
8890;BME280;4481;43.406;24.454;2023-02-28T00:56:19;78323.97;;;-144.09;100.00
8890;BME280;4481;43.406;24.454;2023-02-28T00:58:46;78315.63;;;-144.09;100.00
8890;BME280;4481;43.406;24.454;2023-02-28T01:01:12;78313.53;;;-144.09;100.00
8890;BME280;4481;43.406;24.454;2023-02-28T01:03:38;78330.25;;;-144.09;100.00
8890;BME280;4481;43.406;24.454;2023-02-28T01:06:05;78361.59;;;-144.09;100.00
8890;BME280;4481;43.406;24.454;2023-02-28T01:08:31;78382.50;;;-144.09;100.00
8890;BME280;4481;43.406;24.454;2023-02-28T01:10:57;78390.88;;;-144.09;100.00
8890;BME280;4481;43.406;24.454;2023-02-28T01:13:23;78367.88;;;-144.09;100.00
8890;BME280;4481;43.406;24.454;2023-02-28T01:15:53;78363.69;;;-144.09;100.00
8890;BME280;4481;43.406;24.454;2023-02-28T01:18:21;78357.44;;;-144.09;100.00
8890;BME280;4481;43.406;24.454;2023-02-28T01:20:47;78359.53;;;-144.09;100.00
8890;BME280;4481;43.406;24.454;2023-02-28T01:23:14;78353.25;;;-144.09;100.00
8890;BME280;4481;43.406;24.454;2023-02-28T01:25:40;78374.16;;;-144.09;100.00
8890;BME280;4481;43.406;24.454;2023-02-28T01:28:06;78388.78;;;-144.09;100.00
8890;BME280;4481;43.406;24.454;2023-02-28T01:30:32;78399.25;;;-144.09;100.00
8890;BME280;4481;43.406;24.454;2023-02-28T01:32:59;78397.16;;;-144.09;100.00
8890;BME280;4481;43.406;24.454;2023-02-28T01:35:26;78382.50;;;-144.09;100.00
8890;BME280;4481;43.406;24.454;2023-02-28T01:37:52;78407.59;;;-144.09;100.00
8890;BME280;4481;43.406;24.454;2023-02-28T01:40:18;78411.78;;;-144.09;100.00
8890;BME280;4481;43.406;24.454;2023-02-28T01:42:44;78392.97;;;-144.09;100.00
8890;BME280;4481;43.406;24.454;2023-02-28T01:45:20;78397.16;;;-144.09;100.00
8890;BME280;4481;43.406;24.454;2023-02-28T01:47:48;78399.25;;;-144.09;100.00
8890;BME280;4481;43.406;24.454;2023-02-28T01:50:18;78401.34;;;-144.09;100.00
8890;BME280;4481;43.406;24.454;2023-02-28T01:52:45;78420.16;;;-144.09;100.00
8890;BME280;4481;43.406;24.454;2023-02-28T01:55:13;78411.78;;;-144.09;100.00
8890;BME280;4481;43.406;24.454;2023-02-28T01:57:43;78407.59;;;-144.09;100.00
8890;BME280;4481;43.406;24.454;2023-02-28T02:00:13;78426.41;;;-144.09;100.00
8890;BME280;4481;43.406;24.454;2023-02-28T02:02:42;78428.50;;;-144.09;100.00
8890;BME280;4481;43.406;24.454;2023-02-28T02:05:10;78420.16;;;-144.09;100.00
8890;BME280;4481;43.406;24.454;2023-02-28T02:07:40;78420.16;;;-144.09;100.00
8890;BME280;4481;43.406;24.454;2023-02-28T02:10:14;78420.16;;;-144.09;100.00
8890;BME280;4481;43.406;24.454;2023-02-28T02:13:17;78422.25;;;-144.09;100.00
8890;BME280;4481;43.406;24.454;2023-02-28T02:15:56;78436.88;;;-144.09;100.00
8890;BME280;4481;43.406;24.454;2023-02-28T02:18:30;78436.88;;;-144.09;100.00
8890;BME280;4481;43.406;24.454;2023-02-28T02:21:18;78449.41;;;-144.09;100.00
8890;BME280;4481;43.406;24.454;2023-02-28T02:24:24;78445.25;;;-144.09;100.00
8890;BME280;4481;43.406;24.454;2023-02-28T02:30:16;78453.59;;;-144.09;100.00
8890;BME280;4481;43.406;24.454;2023-02-28T02:33:02;78445.25;;;-144.09;100.00
8890;BME280;4481;43.406;24.454;2023-02-28T02:35:31;78447.31;;;-144.09;100.00
8890;BME280;4481;43.406;24.454;2023-02-28T02:38:08;78457.78;;;-144.09;100.00
8890;BME280;4481;43.406;24.454;2023-02-28T02:40:39;78459.88;;;-144.09;100.00
8890;BME280;4481;43.406;24.454;2023-02-28T02:43:13;78468.25;;;-144.09;100.00
8890;BME280;4481;43.406;24.454;2023-02-28T02:45:45;78474.50;;;-144.09;100.00
8890;BME280;4481;43.406;24.454;2023-02-28T02:48:18;78491.22;;;-144.09;100.00
8890;BME280;4481;43.406;24.454;2023-02-28T02:50:49;78503.78;;;-144.09;100.00
8890;BME280;4481;43.406;24.454;2023-02-28T02:53:18;78526.78;;;-144.09;100.00
8890;BME280;4481;43.406;24.454;2023-02-28T02:55:49;78533.03;;;-144.09;100.00
8890;BME280;4481;43.406;24.454;2023-02-28T02:58:23;78533.03;;;-144.09;100.00
8890;BME280;4481;43.406;24.454;2023-02-28T03:00:52;78528.88;;;-144.09;100.00
8890;BME280;4481;43.406;24.454;2023-02-28T03:03:20;78535.13;;;-144.09;100.00
8890;BME280;4481;43.406;24.454;2023-02-28T03:05:56;78541.41;;;-144.09;100.00
8890;BME280;4481;43.406;24.454;2023-02-28T03:08:23;78530.97;;;-144.09;100.00
8890;BME280;4481;43.406;24.454;2023-02-28T03:10:50;78549.78;;;-144.09;100.00
8890;BME280;4481;43.406;24.454;2023-02-28T03:13:42;78556.03;;;-144.09;100.00
8890;BME280;4481;43.406;24.454;2023-02-28T03:16:27;78579.03;;;-144.09;100.00
8890;BME280;4481;43.406;24.454;2023-02-28T03:19:01;78568.59;;;-144.09;100.00
8890;BME280;4481;43.406;24.454;2023-02-28T03:21:34;78574.88;;;-144.09;100.00
8890;BME280;4481;43.406;24.454;2023-02-28T03:24:05;78589.50;;;-144.09;100.00
8890;BME280;4481;43.406;24.454;2023-02-28T03:26:34;78614.59;;;-144.09;100.00
8890;BME280;4481;43.406;24.454;2023-02-28T03:29:05;78625.03;;;-144.09;100.00
8890;BME280;4481;43.406;24.454;2023-02-28T03:31:37;78627.13;;;-144.09;100.00
8890;BME280;4481;43.406;24.454;2023-02-28T03:34:08;78631.31;;;-144.09;100.00
8890;BME280;4481;43.406;24.454;2023-02-28T03:36:39;78622.94;;;-144.09;100.00
8890;BME280;4481;43.406;24.454;2023-02-28T03:39:11;78631.31;;;-144.09;100.00
8890;BME280;4481;43.406;24.454;2023-02-28T03:41:42;78635.50;;;-144.09;100.00
8890;BME280;4481;43.406;24.454;2023-02-28T03:44:16;78641.78;;;-144.09;100.00
8890;BME280;4481;43.406;24.454;2023-02-28T03:46:47;78637.59;;;-144.09;100.00
8890;BME280;4481;43.406;24.454;2023-02-28T03:49:17;78631.31;;;-144.09;100.00
8890;BME280;4481;43.406;24.454;2023-02-28T03:51:46;78643.84;;;-144.09;100.00
8890;BME280;4481;43.406;24.454;2023-02-28T03:54:18;78652.22;;;-144.09;100.00
8890;BME280;4481;43.406;24.454;2023-02-28T03:56:50;78654.31;;;-144.09;100.00
8890;BME280;4481;43.406;24.454;2023-02-28T03:59:21;78660.59;;;-144.09;100.00
8890;BME280;4481;43.406;24.454;2023-02-28T04:01:50;78675.22;;;-144.09;100.00
8890;BME280;4481;43.406;24.454;2023-02-28T04:04:17;78683.59;;;-144.09;100.00
8890;BME280;4481;43.406;24.454;2023-02-28T04:06:45;78675.22;;;-144.09;100.00
8890;BME280;4481;43.406;24.454;2023-02-28T04:09:14;78671.03;;;-144.09;100.00
8890;BME280;4481;43.406;24.454;2023-02-28T04:11:42;78656.41;;;-144.09;100.00
8890;BME280;4481;43.406;24.454;2023-02-28T04:14:09;78648.03;;;-144.09;100.00
8890;BME280;4481;43.406;24.454;2023-02-28T04:16:37;78635.50;;;-144.09;100.00
8890;BME280;4481;43.406;24.454;2023-02-28T04:19:04;78643.84;;;-144.09;100.00
8890;BME280;4481;43.406;24.454;2023-02-28T04:21:32;78673.13;;;-144.09;100.00
8890;BME280;4481;43.406;24.454;2023-02-28T04:23:59;78666.84;;;-144.09;100.00
8890;BME280;4481;43.406;24.454;2023-02-28T04:26:28;78677.31;;;-144.09;100.00
8890;BME280;4481;43.406;24.454;2023-02-28T04:28:55;78656.41;;;-144.09;100.00
8890;BME280;4481;43.406;24.454;2023-02-28T04:31:21;78652.22;;;-144.09;100.00
8890;BME280;4481;43.406;24.454;2023-02-28T04:33:47;78662.69;;;-144.09;100.00
8890;BME280;4481;43.406;24.454;2023-02-28T04:36:13;78675.22;;;-144.09;100.00
8890;BME280;4481;43.406;24.454;2023-02-28T04:38:40;78662.69;;;-144.09;100.00
8890;BME280;4481;43.406;24.454;2023-02-28T04:41:07;78675.22;;;-144.09;100.00
8890;BME280;4481;43.406;24.454;2023-02-28T04:43:33;78679.41;;;-144.09;100.00
8890;BME280;4481;43.406;24.454;2023-02-28T04:46:02;78662.69;;;-144.09;100.00
8890;BME280;4481;43.406;24.454;2023-02-28T04:48:30;78700.31;;;-144.09;100.00
8890;BME280;4481;43.406;24.454;2023-02-28T04:51:00;78717.03;;;-144.09;100.00
8890;BME280;4481;43.406;24.454;2023-02-28T04:53:27;78733.78;;;-144.09;100.00
8890;BME280;4481;43.406;24.454;2023-02-28T04:55:54;78727.50;;;-144.09;100.00
8890;BME280;4481;43.406;24.454;2023-02-28T04:58:21;78725.41;;;-144.09;100.00
8890;BME280;4481;43.406;24.454;2023-02-28T05:00:48;78729.59;;;-144.09;100.00
8890;BME280;4481;43.406;24.454;2023-02-28T05:03:14;78719.13;;;-144.09;100.00
8890;BME280;4481;43.406;24.454;2023-02-28T05:05:40;78727.50;;;-144.09;100.00
8890;BME280;4481;43.406;24.454;2023-02-28T05:08:06;78714.94;;;-144.09;100.00
8890;BME280;4481;43.406;24.454;2023-02-28T05:10:33;78729.59;;;-144.09;100.00
8890;BME280;4481;43.406;24.454;2023-02-28T05:12:59;78725.41;;;-144.09;100.00
8890;BME280;4481;43.406;24.454;2023-02-28T05:15:26;78746.31;;;-144.09;100.00
8890;BME280;4481;43.406;24.454;2023-02-28T05:17:52;78769.31;;;-144.09;100.00
8890;BME280;4481;43.406;24.454;2023-02-28T05:20:19;78767.22;;;-144.09;100.00
8890;BME280;4481;43.406;24.454;2023-02-28T05:22:46;78781.84;;;-144.09;100.00
8890;BME280;4481;43.406;24.454;2023-02-28T05:25:15;78788.13;;;-144.09;100.00
8890;BME280;4481;43.406;24.454;2023-02-28T05:27:42;78794.41;;;-144.09;100.00
8890;BME280;4481;43.406;24.454;2023-02-28T05:30:09;78796.50;;;-144.09;100.00
8890;BME280;4481;43.406;24.454;2023-02-28T05:32:36;78811.13;;;-144.09;100.00
8890;BME280;4481;43.406;24.454;2023-02-28T05:35:03;78817.41;;;-144.09;100.00
8890;BME280;4481;43.406;24.454;2023-02-28T05:37:30;78821.59;;;-144.09;100.00
8890;BME280;4481;43.406;24.454;2023-02-28T05:39:56;78823.69;;;-144.09;100.00
8890;BME280;4481;43.406;24.454;2023-02-28T05:42:22;78815.31;;;-144.09;100.00
8890;BME280;4481;43.406;24.454;2023-02-28T05:44:48;78815.31;;;-144.09;100.00
8890;BME280;4481;43.406;24.454;2023-02-28T05:47:14;78827.84;;;-144.09;100.00
8890;BME280;4481;43.406;24.454;2023-02-28T05:49:41;78819.50;;;-144.09;100.00
8890;BME280;4481;43.406;24.454;2023-02-28T05:52:08;78800.69;;;-144.09;100.00
8890;BME280;4481;43.406;24.454;2023-02-28T05:54:34;78811.13;;;-144.09;100.00
8890;BME280;4481;43.406;24.454;2023-02-28T05:57:00;78827.84;;;-144.09;100.00
8890;BME280;4481;43.406;24.454;2023-02-28T05:59:26;78817.41;;;-144.09;100.00
8890;BME280;4481;43.406;24.454;2023-02-28T06:01:52;78815.31;;;-144.09;100.00
8890;BME280;4481;43.406;24.454;2023-02-28T06:04:20;78811.13;;;-144.09;100.00
8890;BME280;4481;43.406;24.454;2023-02-28T06:06:47;78809.03;;;-144.09;100.00
8890;BME280;4481;43.406;24.454;2023-02-28T06:09:14;78813.22;;;-144.09;100.00
8890;BME280;4481;43.406;24.454;2023-02-28T06:11:40;78813.22;;;-144.09;100.00
8890;BME280;4481;43.406;24.454;2023-02-28T06:14:07;78815.31;;;-144.09;100.00
8890;BME280;4481;43.406;24.454;2023-02-28T06:16:34;78827.84;;;-144.09;100.00
8890;BME280;4481;43.406;24.454;2023-02-28T06:19:02;78821.59;;;-144.09;100.00
8890;BME280;4481;43.406;24.454;2023-02-28T06:21:29;78823.69;;;-144.09;100.00
8890;BME280;4481;43.406;24.454;2023-02-28T06:23:56;78813.22;;;-144.09;100.00
8890;BME280;4481;43.406;24.454;2023-02-28T06:26:24;78823.69;;;-144.09;100.00
8890;BME280;4481;43.406;24.454;2023-02-28T06:28:51;78815.31;;;-144.09;100.00
8890;BME280;4481;43.406;24.454;2023-02-28T06:31:18;78817.41;;;-144.09;100.00
8890;BME280;4481;43.406;24.454;2023-02-28T06:33:45;78825.78;;;-144.09;100.00
8890;BME280;4481;43.406;24.454;2023-02-28T06:36:13;78832.03;;;-144.09;100.00
8890;BME280;4481;43.406;24.454;2023-02-28T06:38:40;78825.78;;;-144.09;100.00
8890;BME280;4481;43.406;24.454;2023-02-28T06:41:07;78834.13;;;-144.09;100.00
8890;BME280;4481;43.406;24.454;2023-02-28T06:43:35;78819.50;;;-144.09;100.00
8890;BME280;4481;43.406;24.454;2023-02-28T06:46:04;78827.84;;;-144.09;100.00
8890;BME280;4481;43.406;24.454;2023-02-28T06:48:30;78829.94;;;-144.09;100.00
8890;BME280;4481;43.406;24.454;2023-02-28T06:51:02;78819.50;;;-144.09;100.00
8890;BME280;4481;43.406;24.454;2023-02-28T06:53:31;78834.13;;;-144.09;100.00
8890;BME280;4481;43.406;24.454;2023-02-28T06:55:58;78834.13;;;-144.09;100.00
8890;BME280;4481;43.406;24.454;2023-02-28T06:58:25;78829.94;;;-144.09;100.00
8890;BME280;4481;43.406;24.454;2023-02-28T07:00:52;78834.13;;;-144.09;100.00
8890;BME280;4481;43.406;24.454;2023-02-28T07:03:18;78840.41;;;-144.09;100.00
8890;BME280;4481;43.406;24.454;2023-02-28T07:05:45;78850.84;;;-144.09;100.00
8890;BME280;4481;43.406;24.454;2023-02-28T07:08:11;78840.41;;;-144.09;100.00
8890;BME280;4481;43.406;24.454;2023-02-28T07:10:38;78842.50;;;-144.09;100.00
8890;BME280;4481;43.406;24.454;2023-02-28T07:13:05;78848.78;;;-144.09;100.00
8890;BME280;4481;43.406;24.454;2023-02-28T07:15:32;78834.13;;;-144.09;100.00
8890;BME280;4481;43.406;24.454;2023-02-28T07:17:59;78821.59;;;-144.09;100.00
8890;BME280;4481;43.406;24.454;2023-02-28T07:20:28;78825.78;;;-144.09;100.00
8890;BME280;4481;43.406;24.454;2023-02-28T07:22:55;78832.03;;;-144.09;100.00
8890;BME280;4481;43.406;24.454;2023-02-28T07:25:22;78836.22;;;-144.09;100.00
8890;BME280;4481;43.406;24.454;2023-02-28T07:27:48;78850.84;;;-144.09;100.00
8890;BME280;4481;43.406;24.454;2023-02-28T07:30:15;78857.13;;;-144.09;100.00
8890;BME280;4481;43.406;24.454;2023-02-28T07:32:42;78850.84;;;-144.09;100.00
8890;BME280;4481;43.406;24.454;2023-02-28T07:35:08;78850.84;;;-144.09;100.00
8890;BME280;4481;43.406;24.454;2023-02-28T07:37:35;78838.31;;;-144.09;100.00
8890;BME280;4481;43.406;24.454;2023-02-28T07:40:02;78829.94;;;-144.09;100.00
8890;BME280;4481;43.406;24.454;2023-02-28T07:42:32;78838.31;;;-144.09;100.00
8890;BME280;4481;43.406;24.454;2023-02-28T07:44:58;78838.31;;;-144.09;100.00
8890;BME280;4481;43.406;24.454;2023-02-28T07:47:24;78825.78;;;-144.09;100.00
8890;BME280;4481;43.406;24.454;2023-02-28T07:49:51;78815.31;;;-144.09;100.00
8890;BME280;4481;43.406;24.454;2023-02-28T07:52:18;78813.22;;;-144.09;100.00
8890;BME280;4481;43.406;24.454;2023-02-28T07:54:44;78832.03;;;-144.09;100.00
8890;BME280;4481;43.406;24.454;2023-02-28T07:57:11;78819.50;;;-144.09;100.00
8890;BME280;4481;43.406;24.454;2023-02-28T07:59:38;78811.13;;;-144.09;100.00
8890;BME280;4481;43.406;24.454;2023-02-28T08:02:05;78819.50;;;-144.09;100.00
8890;BME280;4481;43.406;24.454;2023-02-28T08:04:31;78809.03;;;-144.09;100.00
8890;BME280;4481;43.406;24.454;2023-02-28T08:06:58;78800.69;;;-144.09;100.00
8890;BME280;4481;43.406;24.454;2023-02-28T08:09:25;78838.31;;;-144.09;100.00
8890;BME280;4481;43.406;24.454;2023-02-28T08:11:51;78852.94;;;-144.09;100.00
8890;BME280;4481;43.406;24.454;2023-02-28T08:14:17;78840.41;;;-144.09;100.00
8890;BME280;4481;43.406;24.454;2023-02-28T08:16:44;78846.69;;;-144.09;100.00
8890;BME280;4481;43.406;24.454;2023-02-28T08:19:10;78809.03;;;-144.09;100.00
8890;BME280;4481;43.406;24.454;2023-02-28T08:21:37;78825.78;;;-144.09;100.00
8890;BME280;4481;43.406;24.454;2023-02-28T08:24:05;78848.78;;;-144.09;100.00
8890;BME280;4481;43.406;24.454;2023-02-28T08:26:32;78836.22;;;-144.09;100.00
8890;BME280;4481;43.406;24.454;2023-02-28T08:28:58;78827.84;;;-144.09;100.00
8890;BME280;4481;43.406;24.454;2023-02-28T08:31:25;78825.78;;;-144.09;100.00
8890;BME280;4481;43.406;24.454;2023-02-28T08:33:51;78802.78;;;-144.09;100.00
8890;BME280;4481;43.406;24.454;2023-02-28T08:36:19;78823.69;;;-144.09;100.00
8890;BME280;4481;43.406;24.454;2023-02-28T08:38:45;78832.03;;;-144.09;100.00
8890;BME280;4481;43.406;24.454;2023-02-28T08:41:12;78840.41;;;-144.09;100.00
8890;BME280;4481;43.406;24.454;2023-02-28T08:43:39;78834.13;;;-144.09;100.00
8890;BME280;4481;43.406;24.454;2023-02-28T08:46:07;78829.94;;;-144.09;100.00
8890;BME280;4481;43.406;24.454;2023-02-28T08:48:34;78815.31;;;-144.09;100.00
8890;BME280;4481;43.406;24.454;2023-02-28T08:51:06;78817.41;;;-144.09;100.00
8890;BME280;4481;43.406;24.454;2023-02-28T08:53:33;78806.94;;;-144.09;100.00
8890;BME280;4481;43.406;24.454;2023-02-28T08:56:00;78804.84;;;-144.09;100.00
8890;BME280;4481;43.406;24.454;2023-02-28T08:58:27;78781.84;;;-144.09;100.00
8890;BME280;4481;43.406;24.454;2023-02-28T09:00:54;78788.13;;;-144.09;100.00
8890;BME280;4481;43.406;24.454;2023-02-28T09:03:21;78800.69;;;-144.09;100.00
8890;BME280;4481;43.406;24.454;2023-02-28T09:05:55;78804.84;;;-144.09;100.00
8890;BME280;4481;43.406;24.454;2023-02-28T09:08:21;78790.22;;;-144.09;100.00
8890;BME280;4481;43.406;24.454;2023-02-28T09:10:48;78775.59;;;-144.09;100.00
8890;BME280;4481;43.406;24.454;2023-02-28T09:13:14;78788.13;;;-144.09;100.00
8890;BME280;4481;43.406;24.454;2023-02-28T09:15:41;78783.94;;;-144.09;100.00
8890;BME280;4481;43.406;24.454;2023-02-28T09:18:08;78781.84;;;-144.09;100.00
8890;BME280;4481;43.406;24.454;2023-02-28T09:20:37;78786.03;;;-144.09;100.00
8890;BME280;4481;43.406;24.454;2023-02-28T09:23:05;78790.22;;;-144.09;100.00
8890;BME280;4481;43.406;24.454;2023-02-28T09:25:31;78792.31;;;-144.09;100.00
8890;BME280;4481;43.406;24.454;2023-02-28T09:27:57;78777.69;;;-144.09;100.00
8890;BME280;4481;43.406;24.454;2023-02-28T09:30:23;78779.78;;;-144.09;100.00
8890;BME280;4481;43.406;24.454;2023-02-28T09:32:50;78790.22;;;-144.09;100.00
8890;BME280;4481;43.406;24.454;2023-02-28T09:35:19;78809.03;;;-144.09;100.00
8890;BME280;4481;43.406;24.454;2023-02-28T09:37:47;78798.59;;;-144.09;100.00
8890;BME280;4481;43.406;24.454;2023-02-28T09:40:14;78815.31;;;-144.09;100.00
8890;BME280;4481;43.406;24.454;2023-02-28T09:42:44;78821.59;;;-144.09;100.00
8890;BME280;4481;43.406;24.454;2023-02-28T09:45:19;78781.84;;;-144.09;100.00
8890;BME280;4481;43.406;24.454;2023-02-28T09:47:48;78788.13;;;-144.09;100.00
8890;BME280;4481;43.406;24.454;2023-02-28T09:50:21;78806.94;;;-144.09;100.00
8890;BME280;4481;43.406;24.454;2023-02-28T09:52:49;78796.50;;;-144.09;100.00
8890;BME280;4481;43.406;24.454;2023-02-28T09:55:20;78783.94;;;-144.09;100.00
8890;BME280;4481;43.406;24.454;2023-02-28T09:57:49;78775.59;;;-144.09;100.00
8890;BME280;4481;43.406;24.454;2023-02-28T10:00:20;78783.94;;;-144.09;100.00
8890;BME280;4481;43.406;24.454;2023-02-28T10:02:58;78771.41;;;-144.09;100.00
8890;BME280;4481;43.406;24.454;2023-02-28T10:05:33;78758.84;;;-144.09;100.00
8890;BME280;4481;43.406;24.454;2023-02-28T10:08:07;78775.59;;;-144.09;100.00
8890;BME280;4481;43.406;24.454;2023-02-28T10:10:39;78758.84;;;-144.09;100.00
8890;BME280;4481;43.406;24.454;2023-02-28T10:13:14;78742.13;;;-144.09;100.00
8890;BME280;4481;43.406;24.454;2023-02-28T10:15:43;78742.13;;;-144.09;100.00
8890;BME280;4481;43.406;24.454;2023-02-28T10:18:15;78746.31;;;-144.09;100.00
8890;BME280;4481;43.406;24.454;2023-02-28T10:20:46;78737.94;;;-144.09;100.00
8890;BME280;4481;43.406;24.454;2023-02-28T10:23:20;78729.59;;;-144.09;100.00
8890;BME280;4481;43.406;24.454;2023-02-28T10:25:52;78740.03;;;-144.09;100.00
8890;BME280;4481;43.406;24.454;2023-02-28T10:28:20;78733.78;;;-144.09;100.00
8890;BME280;4481;43.406;24.454;2023-02-28T10:30:49;78740.03;;;-144.09;100.00
8890;BME280;4481;43.406;24.454;2023-02-28T10:33:29;78717.03;;;-144.09;100.00
8890;BME280;4481;43.406;24.454;2023-02-28T10:35:57;78733.78;;;-144.09;100.00
8890;BME280;4481;43.406;24.454;2023-02-28T10:38:25;78719.13;;;-144.09;100.00
8890;BME280;4481;43.406;24.454;2023-02-28T10:41:03;78691.94;;;-144.09;100.00
8890;BME280;4481;43.406;24.454;2023-02-28T10:43:30;78679.41;;;-144.09;100.00
8890;BME280;4481;43.406;24.454;2023-02-28T10:45:59;78658.50;;;-144.09;100.00
8890;BME280;4481;43.406;24.454;2023-02-28T10:48:32;78704.50;;;-144.09;100.00
8890;BME280;4481;43.406;24.454;2023-02-28T10:50:59;78685.69;;;-144.09;100.00
8890;BME280;4481;43.406;24.454;2023-02-28T10:53:37;78702.41;;;-144.09;100.00
8890;BME280;4481;43.406;24.454;2023-02-28T10:56:05;78706.59;;;-144.09;100.00
8890;BME280;4481;43.406;24.454;2023-02-28T10:58:47;78712.84;;;-144.09;100.00
8890;BME280;4481;43.406;24.454;2023-02-28T11:01:15;78694.03;;;-144.09;100.00
8890;BME280;4481;43.406;24.454;2023-02-28T11:03:42;78677.31;;;-144.09;100.00
8890;BME280;4481;43.406;24.454;2023-02-28T11:06:15;78656.41;;;-144.09;100.00
8890;BME280;4481;43.406;24.454;2023-02-28T11:08:47;78698.22;;;-144.09;100.00
8890;BME280;4481;43.406;24.454;2023-02-28T11:11:16;78679.41;;;-144.09;100.00
8890;BME280;4481;43.406;24.454;2023-02-28T11:13:44;78662.69;;;-144.09;100.00
8890;BME280;4481;43.406;24.454;2023-02-28T11:16:12;78675.22;;;-144.09;100.00
8890;BME280;4481;43.406;24.454;2023-02-28T11:18:42;78687.78;;;-144.09;100.00
8890;BME280;4481;43.406;24.454;2023-02-28T11:21:16;78685.69;;;-144.09;100.00
8890;BME280;4481;43.406;24.454;2023-02-28T11:23:45;78681.50;;;-144.09;100.00
8890;BME280;4481;43.406;24.454;2023-02-28T11:26:13;78671.03;;;-144.09;100.00
8890;BME280;4481;43.406;24.454;2023-02-28T11:28:41;78673.13;;;-144.09;100.00
8890;BME280;4481;43.406;24.454;2023-02-28T11:31:25;78668.94;;;-144.09;100.00
8890;BME280;4481;43.406;24.454;2023-02-28T11:33:55;78664.78;;;-144.09;100.00
8890;BME280;4481;43.406;24.454;2023-02-28T11:36:24;78656.41;;;-144.09;100.00
8890;BME280;4481;43.406;24.454;2023-02-28T11:38:51;78660.59;;;-144.09;100.00
8890;BME280;4481;43.406;24.454;2023-02-28T11:41:39;78689.84;;;-144.09;100.00
8890;BME280;4481;43.406;24.454;2023-02-28T11:44:32;78691.94;;;-144.09;100.00
8890;BME280;4481;43.406;24.454;2023-02-28T11:47:08;78675.22;;;-144.09;100.00
8890;BME280;4481;43.406;24.454;2023-02-28T11:49:43;78694.03;;;-144.09;100.00
8890;BME280;4481;43.406;24.454;2023-02-28T11:52:21;78662.69;;;-144.09;100.00
8890;BME280;4481;43.406;24.454;2023-02-28T11:54:59;78660.59;;;-144.09;100.00
8890;BME280;4481;43.406;24.454;2023-02-28T11:57:49;78675.22;;;-144.09;100.00
8890;BME280;4481;43.406;24.454;2023-02-28T12:00:34;78677.31;;;-144.09;100.00
8890;BME280;4481;43.406;24.454;2023-02-28T12:03:16;78660.59;;;-144.09;100.00
8890;BME280;4481;43.406;24.454;2023-02-28T12:05:46;78664.78;;;-144.09;100.00
8890;BME280;4481;43.406;24.454;2023-02-28T12:08:27;78694.03;;;-144.09;100.00
8890;BME280;4481;43.406;24.454;2023-02-28T12:11:05;78673.13;;;-144.09;100.00
8890;BME280;4481;43.406;24.454;2023-02-28T12:13:43;78671.03;;;-144.09;100.00
8890;BME280;4481;43.406;24.454;2023-02-28T12:16:26;78656.41;;;-144.09;100.00
8890;BME280;4481;43.406;24.454;2023-02-28T12:19:06;78658.50;;;-144.09;100.00
8890;BME280;4481;43.406;24.454;2023-02-28T12:21:48;78664.78;;;-144.09;100.00
8890;BME280;4481;43.406;24.454;2023-02-28T12:24:44;78625.03;;;-144.09;100.00
8890;BME280;4481;43.406;24.454;2023-02-28T12:27:13;78633.41;;;-144.09;100.00
8890;BME280;4481;43.406;24.454;2023-02-28T12:29:46;78691.94;;;-144.09;100.00
8890;BME280;4481;43.406;24.454;2023-02-28T12:32:18;78658.50;;;-144.09;100.00
8890;BME280;4481;43.406;24.454;2023-02-28T12:34:47;78662.69;;;-144.09;100.00
8890;BME280;4481;43.406;24.454;2023-02-28T12:37:19;78629.22;;;-144.09;100.00
8890;BME280;4481;43.406;24.454;2023-02-28T12:39:51;78612.50;;;-144.09;100.00
8890;BME280;4481;43.406;24.454;2023-02-28T12:42:24;78650.13;;;-144.09;100.00
8890;BME280;4481;43.406;24.454;2023-02-28T12:44:54;78641.78;;;-144.09;100.00
8890;BME280;4481;43.406;24.454;2023-02-28T12:47:22;78664.78;;;-144.09;100.00
8890;BME280;4481;43.406;24.454;2023-02-28T12:49:51;78645.94;;;-144.09;100.00
8890;BME280;4481;43.406;24.454;2023-02-28T12:52:23;78641.78;;;-144.09;100.00
8890;BME280;4481;43.406;24.454;2023-02-28T12:54:55;78652.22;;;-144.09;100.00